Atlantic Mine, MI

9:09 PM EST on December 21, 2014 (GMT -0500)
Onnela | Change Station
CLOSE
Current Station
Personal Weather Station
Location: Atlantic Mine, MI
Elevation: 940 ft
Nearby Weather Stations
Active Advisory: Special Statement

Elev 940 ft 47.13 °N, 88.69 °W | Updated 3 minutes ago

Snow
Snow
32.6 °F
Feels Like 28 °F
N
5.0
Wind Variable Wind from SE
Gusts 8.0 mph

Today
High -- | Low -- °F
--% Chance of Precip.
Yesterday
High -- | Low -- °F
Precip. -- in
8:37 AM 5:07 PM
New Moon, 0% visible
Pressure 29.91 in
Visibility 0.2 miles
Clouds
Windchill 28 °F
Dew Point 32 °F
Humidity 97%
Rainfall 0.00 in
Snow Depth Not available.
UV Not available.
Pollen .10 out of 12
Air Quality Not available.
Flu Activity Not available.
METAR KCMX 220153Z AUTO 13006KT 1/4SM SN FG VV002 00/M01 A2986 RMK AO2 SLP126 P0004 T00001006

More Conditions Fewer Conditions

Pressure 29.91 in
Visibility 0.2 miles
Clouds
Windchill 28 °F
Dew Point 32 °F
Humidity 97%
Rainfall 0.00 in
Snow Depth Not available.
UV Not available.
Pollen .10 out of 12
Air Quality Not available.
Flu Activity Not available.
METAR KCMX 220153Z AUTO 13006KT 1/4SM SN FG VV002 00/M01 A2986 RMK AO2 SLP126 P0004 T00001006

More Conditions Fewer Conditions

10-Day Weather Forecast

Almanac

Astronomy

Dec. 21, 2014 Rise Set
Actual Time
Civil Twilight
Nautical Twilight
Astronomical Twilight
Moon
Length of Visible Light
Length of Day
Tomorrow will be .
, % of the Moon is Illuminated

Today's Extremes

State Highs State Lows

Community

WunderPhotos

Upload Photos

1,779,520 photos uploaded!

WunderBlogs® & News

Nearby

Air Quality

  Air Quality AQ Index Pollutant
Not available.

Snow Depth

Station Depth Elevation

Earthquake Activity

City Distance Mag. Time & Date
Minimum magnitude displayed is 2.5.

Coastal Water Temperatures

Place Temperature

Nearby Weather Stations